Time;durP1;ratioP1;P1;durP2;ratioP2;P2;SDS_P1;SDS_P2;PMS_P1;PMS_P2;Temp;Humidity;BMP_temperature;BMP_pressure;BME280_temperature;BME280_humidity;BME280_pressure;Samples;Min_cycle;Max_cycle;Signal;HPM_P1;HPM_P2
2022/10/14 00:02:20;;;;;;;;;;;;;;;;;;5111058;28;19912;-79
2022/10/14 00:04:46;;;;;;;;;;;;;;;;;;5111844;28;19908;-79
2022/10/14 00:07:12;;;;;;;;;;;;;;;;;;5111291;28;20437;-79
2022/10/14 00:09:40;;;;;;;;;;;;;;;;;;5111066;28;20265;-79
2022/10/14 00:13:29;;;;;;;;;;;;;;;;;;5112666;27;20260;-79
2022/10/14 00:15:55;;;;;;;;;;;;;;;;;;5111397;28;20006;-78
2022/10/14 00:18:21;;;;;;;;;;;;;;;;;;5111715;28;19930;-79
2022/10/14 00:21:40;;;;;;;;;;;;;;;;;;5111989;27;19919;-79
2022/10/14 00:24:06;;;;;;;;;;;;;;;;;;5111575;28;20002;-79
2022/10/14 00:26:32;;;;;;;;;;;;;;;;;;5111809;28;19908;-79
2022/10/14 00:28:58;;;;;;;;;;;;;;;;;;5111714;28;19912;-79
2022/10/14 00:31:24;;;;;;;;;;;;;;;;;;5111247;28;19908;-79
2022/10/14 00:33:50;;;;;;;;;;;;;;;;;;5111542;28;19954;-80
2022/10/14 00:36:16;;;;;;;;;;;;;;;;;;5111342;28;19961;-79
2022/10/14 00:38:42;;;;;;;;;;;;;;;;;;5111632;28;19951;-78
2022/10/14 00:41:08;;;;;;;;;;;;;;;;;;5110113;28;19962;-78
2022/10/14 00:43:33;;;;;;;;;;;;;;;;;;5111094;28;20312;-79
2022/10/14 00:45:59;;;;;;;;;;;;;;;;;;5111369;28;19908;-79
2022/10/14 00:48:25;;;;;;;;;;;;;;;;;;5111299;28;19914;-79
2022/10/14 00:50:51;;;;;;;;;;;;;;;;;;5110794;28;19933;-79
2022/10/14 00:53:17;;;;;;;;;;;;;;;;;;5111238;28;19912;-79
2022/10/14 00:55:43;;;;;;;;;;;;;;;;;;5111229;28;19915;-79
2022/10/14 00:58:09;;;;;;;;;;;;;;;;;;5110867;28;20387;-79
2022/10/14 01:00:35;;;;;;;;;;;;;;;;;;5111010;28;19916;-79
2022/10/14 01:03:01;;;;;;;;;;;;;;;;;;5111001;28;19915;-79
2022/10/14 01:05:27;;;;;;;;;;;;;;;;;;5110753;28;19908;-79
2022/10/14 01:07:53;;;;;;;;;;;;;;;;;;5111158;28;20312;-80
2022/10/14 01:10:19;;;;;;;;;;;;;;;;;;5110886;28;19908;-80
2022/10/14 01:12:45;;;;;;;;;;;;;;;;;;5110580;28;19915;-80
2022/10/14 01:15:11;;;;;;;;;;;;;;;;;;5111025;28;19908;-79
2022/10/14 01:17:37;;;;;;;;;;;;;;;;;;5109442;28;19914;-79
2022/10/14 01:20:03;;;;;;;;;;;;;;;;;;5110281;28;19974;-79
2022/10/14 01:22:29;;;;;;;;;;;;;;;;;;5110671;28;19912;-79
2022/10/14 01:24:55;;;;;;;;;;;;;;;;;;5110728;28;19915;-79
2022/10/14 01:27:21;;;;;;;;;;;;;;;;;;5110190;28;19995;-79
2022/10/14 01:29:46;;;;;;;;;;;;;;;;;;5110893;28;20371;-80
2022/10/14 01:32:12;;;;;;;;;;;;;;;;;;5101276;28;20345;-80
2022/10/14 01:34:38;;;;;;;;;;;;;;;;;;5096482;28;19916;-80
2022/10/14 01:37:04;;;;;;;;;;;;;;;;;;5096847;28;19908;-80
2022/10/14 01:39:30;;;;;;;;;;;;;;;;;;5096803;28;19912;-79
2022/10/14 01:41:56;;;;;;;;;;;;;;;;;;5097113;28;19913;-79
2022/10/14 01:44:22;;;;;;;;;;;;;;;;;;5096734;28;19916;-79
2022/10/14 01:46:48;;;;;;;;;;;;;;;;;;5096272;28;20265;-80
2022/10/14 01:49:14;;;;;;;;;;;;;;;;;;5095333;28;19908;-79
2022/10/14 01:51:40;;;;;;;;;;;;;;;;;;5096596;28;19915;-80
2022/10/14 01:54:06;;;;;;;;;;;;;;;;;;5096483;28;19915;-79
2022/10/14 01:56:32;;;;;;;;;;;;;;;;;;5096503;28;20435;-79
2022/10/14 01:58:58;;;;;;;;;;;;;;;;;;5095177;28;19919;-79
2022/10/14 02:01:24;;;;;;;;;;;;;;;;;;5095994;28;19916;-79
2022/10/14 02:04:00;;;;;;;;;;;;;;;;;;5111998;27;19922;-79
2022/10/14 02:06:26;;;;;;;;;;;;;;;;;;5111852;28;19998;-79
2022/10/14 02:08:52;;;;;;;;;;;;;;;;;;5110095;28;19912;-79
2022/10/14 02:11:18;;;;;;;;;;;;;;;;;;5111678;28;20395;-79
2022/10/14 02:13:44;;;;;;;;;;;;;;;;;;5111636;28;19908;-80
2022/10/14 02:17:42;;;;;;;;;;;;;;;;;;5092082;27;19916;-79
2022/10/14 02:20:08;;;;;;;;;;;;;;;;;;5091440;28;20015;-79
2022/10/14 02:22:34;;;;;;;;;;;;;;;;;;5091063;28;19912;-79
2022/10/14 02:25:00;;;;;;;;;;;;;;;;;;5091464;28;20374;-79
2022/10/14 02:27:26;;;;;;;;;;;;;;;;;;5090086;28;20288;-79
2022/10/14 02:29:52;;;;;;;;;;;;;;;;;;5089599;28;19916;-79
2022/10/14 02:32:18;;;;;;;;;;;;;;;;;;5091310;28;19951;-80
2022/10/14 02:34:44;;;;;;;;;;;;;;;;;;5091165;28;19908;-80
2022/10/14 02:37:10;;;;;;;;;;;;;;;;;;5090712;28;19961;-80
2022/10/14 02:40:50;;;;;;;;;;;;;;;;;;5092199;27;19916;-79
2022/10/14 02:43:16;;;;;;;;;;;;;;;;;;5091002;28;20344;-79
2022/10/14 02:45:42;;;;;;;;;;;;;;;;;;5090067;28;19909;-79
2022/10/14 02:48:08;;;;;;;;;;;;;;;;;;5091318;28;19915;-80
2022/10/14 02:51:39;;;;;;;;;;;;;;;;;;5111526;27;19916;-79
2022/10/14 02:54:04;;;;;;;;;;;;;;;;;;5111696;28;20030;-79
2022/10/14 02:56:30;;;;;;;;;;;;;;;;;;5111896;28;19908;-79
2022/10/14 02:58:56;;;;;;;;;;;;;;;;;;5111368;28;20011;-80
2022/10/14 03:01:22;;;;;;;;;;;;;;;;;;5111647;28;20318;-79
2022/10/14 03:05:34;;;;;;;;;;;;;;;;;;5111680;27;20392;-79
2022/10/14 03:08:00;;;;;;;;;;;;;;;;;;5111715;28;20003;-80
2022/10/14 03:10:26;;;;;;;;;;;;;;;;;;5111670;28;19931;-79
2022/10/14 03:12:52;;;;;;;;;;;;;;;;;;5111245;28;19908;-80
2022/10/14 03:15:18;;;;;;;;;;;;;;;;;;5111545;28;20002;-80
2022/10/14 03:17:44;;;;;;;;;;;;;;;;;;5111559;28;19916;-79
2022/10/14 03:20:10;;;;;;;;;;;;;;;;;;5111094;28;19908;-79
2022/10/14 03:22:36;;;;;;;;;;;;;;;;;;5111527;28;19933;-79
2022/10/14 03:25:02;;;;;;;;;;;;;;;;;;5109689;28;19968;-79
2022/10/14 03:27:28;;;;;;;;;;;;;;;;;;5111461;28;19908;-80
2022/10/14 03:29:54;;;;;;;;;;;;;;;;;;5111399;28;19912;-80
2022/10/14 03:32:20;;;;;;;;;;;;;;;;;;5110850;28;20288;-81
2022/10/14 03:34:46;;;;;;;;;;;;;;;;;;5109918;28;19915;-80
2022/10/14 03:37:12;;;;;;;;;;;;;;;;;;5111155;28;19908;-81
2022/10/14 03:39:38;;;;;;;;;;;;;;;;;;5110648;28;20318;-80
2022/10/14 03:42:04;;;;;;;;;;;;;;;;;;5111019;28;19994;-80
2022/10/14 03:44:30;;;;;;;;;;;;;;;;;;5110937;28;19916;-80
2022/10/14 03:46:56;;;;;;;;;;;;;;;;;;5110646;28;19912;-80
2022/10/14 03:49:22;;;;;;;;;;;;;;;;;;5110891;28;19909;-80
2022/10/14 03:51:48;;;;;;;;;;;;;;;;;;5110859;28;20424;-80
2022/10/14 03:54:14;;;;;;;;;;;;;;;;;;5109069;28;20015;-80
2022/10/14 03:56:40;;;;;;;;;;;;;;;;;;5110796;28;19908;-80
2022/10/14 04:01:07;;;;;;;;;;;;;;;;;;5152586;27;20006;-79
2022/10/14 04:03:33;;;;;;;;;;;;;;;;;;5152864;27;20001;-80
2022/10/14 04:05:59;;;;;;;;;;;;;;;;;;5152783;27;19915;-79
2022/10/14 04:08:25;;;;;;;;;;;;;;;;;;5152472;27;19961;-79
2022/10/14 04:11:16;;;;;;;;;;;;;;;;;;5112267;27;20278;-79
2022/10/14 04:13:42;;;;;;;;;;;;;;;;;;5111217;28;19912;-80
2022/10/14 04:16:08;;;;;;;;;;;;;;;;;;5109899;28;20019;-80
2022/10/14 04:18:34;;;;;;;;;;;;;;;;;;5110961;28;19915;-80
2022/10/14 04:21:00;;;;;;;;;;;;;;;;;;5110378;28;20383;-80
2022/10/14 04:23:25;;;;;;;;;;;;;;;;;;5109583;28;20287;-80
2022/10/14 04:25:51;;;;;;;;;;;;;;;;;;5120400;28;19908;-80
2022/10/14 04:28:17;;;;;;;;;;;;;;;;;;5122231;28;19908;-79
2022/10/14 04:30:43;;;;;;;;;;;;;;;;;;5124253;28;19996;-81
2022/10/14 04:33:09;;;;;;;;;;;;;;;;;;5126365;28;19915;-80
2022/10/14 04:35:35;;;;;;;;;;;;;;;;;;5123580;28;19948;-79
2022/10/14 04:38:01;;;;;;;;;;;;;;;;;;5121169;28;19920;-79
2022/10/14 04:41:52;;;;;;;;;;;;;;;;;;5113158;27;19916;-79
2022/10/14 04:44:18;;;;;;;;;;;;;;;;;;5111686;28;19999;-79
2022/10/14 04:48:46;;;;;;;;;;;;;;;;;;5112127;27;19916;-78
2022/10/14 04:51:12;;;;;;;;;;;;;;;;;;5111442;28;20324;-78
2022/10/14 04:53:38;;;;;;;;;;;;;;;;;;5111907;28;19914;-79
2022/10/14 04:56:04;;;;;;;;;;;;;;;;;;5110394;28;20417;-79
2022/10/14 04:58:30;;;;;;;;;;;;;;;;;;5111155;28;19934;-79
2022/10/14 05:00:56;;;;;;;;;;;;;;;;;;5111540;28;19912;-80
2022/10/14 05:03:22;;;;;;;;;;;;;;;;;;5111303;28;20253;-79
2022/10/14 05:05:48;;;;;;;;;;;;;;;;;;5110960;28;19915;-80
2022/10/14 05:08:14;;;;;;;;;;;;;;;;;;5111273;28;19916;-79
2022/10/14 05:10:40;;;;;;;;;;;;;;;;;;5110925;28;19960;-79
2022/10/14 05:13:06;;;;;;;;;;;;;;;;;;5110906;28;19912;-80
2022/10/14 05:15:32;;;;;;;;;;;;;;;;;;5111107;28;19915;-80
2022/10/14 05:17:58;;;;;;;;;;;;;;;;;;5109224;28;19999;-79
2022/10/14 05:20:24;;;;;;;;;;;;;;;;;;5123269;28;19962;-78
2022/10/14 05:22:50;;;;;;;;;;;;;;;;;;5131730;27;19911;-79
2022/10/14 05:25:16;;;;;;;;;;;;;;;;;;5126353;27;19916;-74
2022/10/14 05:27:42;;;;;;;;;;;;;;;;;;5108462;28;19916;-74
2022/10/14 05:30:08;;;;;;;;;;;;;;;;;;5102809;28;19975;-75
2022/10/14 05:32:34;;;;;;;;;;;;;;;;;;5106385;28;19959;-70
2022/10/14 05:35:00;;;;;;;;;;;;;;;;;;5108477;28;20006;-72
2022/10/14 05:37:26;;;;;;;;;;;;;;;;;;5103763;28;19969;-71
2022/10/14 05:39:52;;;;;;;;;;;;;;;;;;5107183;28;19916;-71
2022/10/14 05:43:09;;;;;;;;;;;;;;;;;;5088092;27;19921;-70
2022/10/14 05:45:35;;;;;;;;;;;;;;;;;;5090295;28;19916;-71
2022/10/14 05:48:01;;;;;;;;;;;;;;;;;;5089214;28;19909;-71
2022/10/14 05:50:27;;;;;;;;;;;;;;;;;;5090759;28;19963;-71
2022/10/14 05:52:53;;;;;;;;;;;;;;;;;;5088668;28;19909;-71
2022/10/14 05:55:19;;;;;;;;;;;;;;;;;;5087650;28;19912;-72
2022/10/14 05:57:45;;;;;;;;;;;;;;;;;;5089579;28;20439;-72
2022/10/14 06:00:12;;;;;;;;;;;;;;;;;;5087475;28;19956;-75
2022/10/14 06:02:38;;;;;;;;;;;;;;;;;;5087313;28;20276;-72
2022/10/14 06:05:04;;;;;;;;;;;;;;;;;;5082554;28;19919;-73
2022/10/14 06:07:30;;;;;;;;;;;;;;;;;;5085986;28;20535;-77
2022/10/14 06:09:56;;;;;;;;;;;;;;;;;;5088027;28;19998;-78
2022/10/14 06:12:22;;;;;;;;;;;;;;;;;;5088074;28;20360;-76
2022/10/14 06:15:47;;;;;;;;;;;;;;;;;;5150181;27;19923;-74
2022/10/14 06:18:13;;;;;;;;;;;;;;;;;;5150221;27;19947;-75
2022/10/14 06:20:39;;;;;;;;;;;;;;;;;;5131463;27;19914;-74
2022/10/14 06:23:05;;;;;;;;;;;;;;;;;;5150066;27;19958;-75
2022/10/14 06:27:13;;;;;;;;;;;;;;;;;;5090835;27;19916;-80
2022/10/14 06:29:39;;;;;;;;;;;;;;;;;;5090004;28;20342;-76
2022/10/14 06:32:05;;;;;;;;;;;;;;;;;;5088523;28;19909;-76
2022/10/14 06:34:31;;;;;;;;;;;;;;;;;;5079377;28;19970;-74
2022/10/14 06:36:57;;;;;;;;;;;;;;;;;;5088880;28;19912;-73
2022/10/14 06:39:23;;;;;;;;;;;;;;;;;;5079451;28;19917;-74
2022/10/14 06:41:49;;;;;;;;;;;;;;;;;;5077289;28;19939;-73
2022/10/14 06:44:15;;;;;;;;;;;;;;;;;;5081436;28;19909;-73
2022/10/14 06:46:41;;;;;;;;;;;;;;;;;;5068856;28;19924;-72
2022/10/14 06:49:07;;;;;;;;;;;;;;;;;;5069109;28;20289;-73
2022/10/14 06:51:33;;;;;;;;;;;;;;;;;;5074933;28;19917;-71
2022/10/14 06:53:59;;;;;;;;;;;;;;;;;;5086931;28;20437;-74
2022/10/14 06:56:25;;;;;;;;;;;;;;;;;;5068121;28;19909;-73
2022/10/14 06:58:51;;;;;;;;;;;;;;;;;;5085925;28;20432;-73
2022/10/14 07:01:17;;;;;;;;;;;;;;;;;;5087151;28;20272;-74
2022/10/14 07:03:43;;;;;;;;;;;;;;;;;;5089838;28;19917;-73
2022/10/14 07:06:09;;;;;;;;;;;;;;;;;;5075487;28;19917;-76
2022/10/14 07:08:35;;;;;;;;;;;;;;;;;;5082421;28;19930;-73
2022/10/14 07:11:01;;;;;;;;;;;;;;;;;;5087485;28;19912;-75
2022/10/14 07:13:27;;;;;;;;;;;;;;;;;;5085665;28;19908;-74
2022/10/14 07:15:53;;;;;;;;;;;;;;;;;;5088907;28;19919;-73
2022/10/14 07:18:19;;;;;;;;;;;;;;;;;;5088546;28;19918;-75
2022/10/14 07:20:45;;;;;;;;;;;;;;;;;;5088649;28;19919;-77
2022/10/14 07:23:11;;;;;;;;;;;;;;;;;;5087171;28;19952;-78
2022/10/14 07:25:37;;;;;;;;;;;;;;;;;;5087369;28;19986;-78
2022/10/14 07:28:45;;;;;;;;;;;;;;;;;;5087512;27;19916;-75
2022/10/14 07:31:12;;;;;;;;;;;;;;;;;;5085654;28;19912;-76
2022/10/14 07:35:39;;;;;;;;;;;;;;;;;;5107626;27;19918;-76
2022/10/14 07:38:05;;;;;;;;;;;;;;;;;;5108226;28;19912;-74
2022/10/14 07:40:31;;;;;;;;;;;;;;;;;;5108183;28;19908;-75
2022/10/14 07:42:57;;;;;;;;;;;;;;;;;;5109437;28;20003;-76
2022/10/14 07:45:23;;;;;;;;;;;;;;;;;;5108750;28;20284;-77
2022/10/14 07:47:49;;;;;;;;;;;;;;;;;;5109237;28;19908;-76
2022/10/14 07:52:36;;;;;;;;;;;;;;;;;;5089949;27;19916;-76
2022/10/14 07:55:02;;;;;;;;;;;;;;;;;;5088987;28;19923;-76
2022/10/14 07:57:28;;;;;;;;;;;;;;;;;;5088943;28;19915;-77
2022/10/14 07:59:54;;;;;;;;;;;;;;;;;;5086708;28;20443;-77
2022/10/14 08:02:20;;;;;;;;;;;;;;;;;;5087356;28;20276;-76
2022/10/14 08:04:46;;;;;;;;;;;;;;;;;;5089140;28;19934;-77
2022/10/14 08:07:15;;;;;;;;;;;;;;;;;;5085132;28;20356;-76
2022/10/14 08:09:41;;;;;;;;;;;;;;;;;;5089600;28;19920;-76
2022/10/14 08:12:07;;;;;;;;;;;;;;;;;;5086638;28;19920;-76
2022/10/14 08:14:33;;;;;;;;;;;;;;;;;;5087301;28;20022;-76
2022/10/14 08:16:59;;;;;;;;;;;;;;;;;;5089777;28;19908;-76
2022/10/14 08:19:25;;;;;;;;;;;;;;;;;;5089402;28;19908;-76
2022/10/14 08:21:52;;;;;;;;;;;;;;;;;;5088461;28;20261;-76
2022/10/14 08:24:18;;;;;;;;;;;;;;;;;;5089785;28;19955;-76
2022/10/14 08:26:44;;;;;;;;;;;;;;;;;;5089269;28;20368;-75
2022/10/14 08:29:10;;;;;;;;;;;;;;;;;;5089234;28;19916;-76
2022/10/14 08:31:35;;;;;;;;;;;;;;;;;;5089352;28;19916;-77
2022/10/14 08:34:01;;;;;;;;;;;;;;;;;;5089867;28;19915;-77
2022/10/14 08:36:27;;;;;;;;;;;;;;;;;;5088397;28;20482;-77
2022/10/14 08:38:53;;;;;;;;;;;;;;;;;;5089752;28;19909;-76
2022/10/14 08:41:22;;;;;;;;;;;;;;;;;;5088340;28;19909;-77
2022/10/14 08:43:47;;;;;;;;;;;;;;;;;;5086931;28;19909;-75
2022/10/14 08:46:13;;;;;;;;;;;;;;;;;;5085966;28;20000;-76
2022/10/14 08:48:39;;;;;;;;;;;;;;;;;;5087067;28;19919;-76
2022/10/14 08:51:05;;;;;;;;;;;;;;;;;;5094059;28;19920;-76
2022/10/14 08:53:31;;;;;;;;;;;;;;;;;;5106345;28;19928;-76
2022/10/14 08:57:56;;;;;;;;;;;;;;;;;;5105938;27;19923;-76
2022/10/14 09:00:22;;;;;;;;;;;;;;;;;;5104826;28;19912;-77
2022/10/14 09:02:48;;;;;;;;;;;;;;;;;;5103550;28;19912;-76
2022/10/14 09:05:14;;;;;;;;;;;;;;;;;;5106727;28;19943;-76
2022/10/14 09:07:40;;;;;;;;;;;;;;;;;;5107481;28;19918;-76
2022/10/14 09:10:06;;;;;;;;;;;;;;;;;;5106737;28;19916;-76
2022/10/14 09:12:33;;;;;;;;;;;;;;;;;;5106566;28;20344;-77
2022/10/14 09:14:59;;;;;;;;;;;;;;;;;;5110305;28;20000;-76
2022/10/14 09:17:25;;;;;;;;;;;;;;;;;;5109716;28;19966;-77
2022/10/14 09:19:51;;;;;;;;;;;;;;;;;;5108816;28;19912;-77
2022/10/14 09:24:26;;;;;;;;;;;;;;;;;;5085677;27;19922;-75
2022/10/14 09:26:52;;;;;;;;;;;;;;;;;;5089427;28;19912;-76
2022/10/14 09:29:18;;;;;;;;;;;;;;;;;;5090583;28;19916;-76
2022/10/14 09:31:43;;;;;;;;;;;;;;;;;;5090340;28;19908;-76
2022/10/14 09:36:38;;;;;;;;;;;;;;;;;;5152413;27;19934;-75
2022/10/14 09:41:40;;;;;;;;;;;;;;;;;;5111151;27;19920;-75
2022/10/14 09:44:06;;;;;;;;;;;;;;;;;;5111062;28;19999;-75
2022/10/14 09:46:32;;;;;;;;;;;;;;;;;;5111016;28;20409;-77
2022/10/14 09:48:58;;;;;;;;;;;;;;;;;;5111289;28;20356;-76
2022/10/14 09:51:24;;;;;;;;;;;;;;;;;;5109813;28;20003;-80
2022/10/14 09:53:50;;;;;;;;;;;;;;;;;;5111020;28;19912;-77
2022/10/14 09:56:16;;;;;;;;;;;;;;;;;;5109887;28;19943;-77
2022/10/14 09:58:42;;;;;;;;;;;;;;;;;;5109298;28;20407;-79
2022/10/14 10:01:13;;;;;;;;;;;;;;;;;;5110422;28;20367;-77
2022/10/14 10:03:39;;;;;;;;;;;;;;;;;;5110694;28;19919;-77
2022/10/14 10:06:05;;;;;;;;;;;;;;;;;;5109601;28;20037;-77
2022/10/14 10:08:31;;;;;;;;;;;;;;;;;;5111077;28;19953;-77
2022/10/14 10:10:59;;;;;;;;;;;;;;;;;;5110936;28;19939;-77
2022/10/14 10:14:31;;;;;;;;;;;;;;;;;;5109708;27;20260;-78
2022/10/14 10:18:42;;;;;;;;;;;;;;;;;;5103252;27;19921;-75
2022/10/14 10:21:51;;;;;;;;;;;;;;;;;;5066835;28;19917;-76
2022/10/14 10:24:17;;;;;;;;;;;;;;;;;;5046095;28;19924;-73
2022/10/14 10:26:43;;;;;;;;;;;;;;;;;;5047928;28;19909;-71
2022/10/14 10:29:10;;;;;;;;;;;;;;;;;;5047692;28;19923;-70
2022/10/14 10:31:36;;;;;;;;;;;;;;;;;;5047938;28;19910;-71
2022/10/14 10:34:02;;;;;;;;;;;;;;;;;;5048195;28;19909;-71
2022/10/14 10:36:28;;;;;;;;;;;;;;;;;;5049082;28;19976;-71
2022/10/14 10:38:54;;;;;;;;;;;;;;;;;;5048360;28;19994;-72
2022/10/14 10:42:25;;;;;;;;;;;;;;;;;;5099496;27;19926;-71
2022/10/14 10:44:52;;;;;;;;;;;;;;;;;;5088644;28;19912;-69
2022/10/14 10:49:13;;;;;;;;;;;;;;;;;;5109706;27;19920;-70
2022/10/14 10:51:39;;;;;;;;;;;;;;;;;;5109669;28;20432;-71
2022/10/14 10:54:05;;;;;;;;;;;;;;;;;;5110988;28;19908;-74
2022/10/14 10:56:34;;;;;;;;;;;;;;;;;;5109469;28;19908;-73
2022/10/14 10:59:25;;;;;;;;;;;;;;;;;;5088829;27;19917;-71
2022/10/14 11:01:51;;;;;;;;;;;;;;;;;;5087179;28;19926;-74
2022/10/14 11:04:17;;;;;;;;;;;;;;;;;;5087451;28;20003;-73
2022/10/14 11:12:14;;;;;;;;;;;;;;;;;;5087191;28;19962;-74
2022/10/14 11:14:40;;;;;;;;;;;;;;;;;;5083652;28;19962;-74
2022/10/14 11:18:55;;;;;;;;;;;;;;;;;;5110115;27;19923;-75
2022/10/14 11:21:21;;;;;;;;;;;;;;;;;;5108475;28;19912;-71
2022/10/14 11:23:48;;;;;;;;;;;;;;;;;;5106373;28;20821;-72
2022/10/14 11:26:14;;;;;;;;;;;;;;;;;;5107584;28;19915;-71
2022/10/14 11:28:40;;;;;;;;;;;;;;;;;;5106590;28;20292;-74
2022/10/14 11:31:06;;;;;;;;;;;;;;;;;;5106702;28;19916;-76
2022/10/14 11:33:32;;;;;;;;;;;;;;;;;;5102031;28;20386;-75
2022/10/14 11:35:58;;;;;;;;;;;;;;;;;;5092593;28;19994;-76
2022/10/14 11:38:24;;;;;;;;;;;;;;;;;;5087078;28;20012;-72
2022/10/14 11:40:50;;;;;;;;;;;;;;;;;;5088912;28;19909;-73
2022/10/14 11:43:16;;;;;;;;;;;;;;;;;;5094212;28;19908;-74
2022/10/14 11:45:42;;;;;;;;;;;;;;;;;;5106983;28;19951;-75
2022/10/14 11:48:37;;;;;;;;;;;;;;;;;;5067031;28;19923;-78
2022/10/14 11:51:03;;;;;;;;;;;;;;;;;;5065544;28;19912;-78
2022/10/14 11:53:29;;;;;;;;;;;;;;;;;;5068311;28;19936;-74
2022/10/14 11:55:55;;;;;;;;;;;;;;;;;;5055408;28;19913;-75
2022/10/14 11:58:21;;;;;;;;;;;;;;;;;;5063203;28;20357;-76
2022/10/14 12:03:31;;;;;;;;;;;;;;;;;;5069452;28;20348;-77
2022/10/14 12:05:58;;;;;;;;;;;;;;;;;;5066357;28;19944;-77
2022/10/14 12:08:29;;;;;;;;;;;;;;;;;;5088331;28;19974;-77
2022/10/14 12:10:55;;;;;;;;;;;;;;;;;;5088773;28;19908;-77
2022/10/14 12:13:21;;;;;;;;;;;;;;;;;;5088572;28;20410;-72
2022/10/14 12:15:47;;;;;;;;;;;;;;;;;;5085538;28;20047;-71
2022/10/14 12:18:13;;;;;;;;;;;;;;;;;;5069085;28;19909;-70
2022/10/14 12:23:04;;;;;;;;;;;;;;;;;;5088523;27;20303;-71
2022/10/14 12:25:30;;;;;;;;;;;;;;;;;;5088625;28;19935;-71
2022/10/14 12:27:56;;;;;;;;;;;;;;;;;;5086664;28;20373;-70
2022/10/14 12:34:34;;;;;;;;;;;;;;;;;;5129273;27;19916;-68
2022/10/14 12:37:00;;;;;;;;;;;;;;;;;;5129541;28;19927;-68
2022/10/14 12:39:26;;;;;;;;;;;;;;;;;;5126453;28;20848;-69
2022/10/14 12:41:53;;;;;;;;;;;;;;;;;;5129243;28;20024;-68
2022/10/14 12:44:18;;;;;;;;;;;;;;;;;;5129510;27;20290;-69
2022/10/14 12:46:44;;;;;;;;;;;;;;;;;;5129678;28;20003;-69
2022/10/14 12:49:10;;;;;;;;;;;;;;;;;;5127767;28;20458;-70
2022/10/14 12:51:36;;;;;;;;;;;;;;;;;;5128028;28;20015;-71
2022/10/14 12:54:03;;;;;;;;;;;;;;;;;;5127230;28;19923;-70
2022/10/14 12:57:09;;;;;;;;;;;;;;;;;;5124161;27;19912;-69
2022/10/14 12:59:35;;;;;;;;;;;;;;;;;;5130016;28;19912;-71
2022/10/14 13:02:03;;;;;;;;;;;;;;;;;;5121773;27;19958;-71
2022/10/14 13:04:29;;;;;;;;;;;;;;;;;;5111018;28;19912;-71
2022/10/14 13:06:55;;;;;;;;;;;;;;;;;;5108197;28;19954;-70
2022/10/14 13:09:21;;;;;;;;;;;;;;;;;;5108842;28;19961;-72
2022/10/14 13:11:47;;;;;;;;;;;;;;;;;;5108141;28;19912;-71
2022/10/14 13:14:13;;;;;;;;;;;;;;;;;;5112282;28;19962;-77
2022/10/14 13:16:39;;;;;;;;;;;;;;;;;;5128775;28;19919;-79
2022/10/14 13:19:04;;;;;;;;;;;;;;;;;;5127854;28;19916;-80
2022/10/14 13:21:30;;;;;;;;;;;;;;;;;;5130114;28;19915;-80
2022/10/14 13:23:56;;;;;;;;;;;;;;;;;;5131385;28;19915;-80
2022/10/14 13:26:22;;;;;;;;;;;;;;;;;;5131718;28;19908;-80
2022/10/14 13:28:48;;;;;;;;;;;;;;;;;;5130640;28;19911;-80
2022/10/14 13:31:14;;;;;;;;;;;;;;;;;;5130479;28;19990;-80
2022/10/14 13:33:40;;;;;;;;;;;;;;;;;;5129133;28;19907;-80
2022/10/14 13:36:06;;;;;;;;;;;;;;;;;;5131187;28;19969;-80
2022/10/14 13:39:35;;;;;;;;;;;;;;;;;;5091634;27;19912;-80
2022/10/14 13:42:43;;;;;;;;;;;;;;;;;;5111018;27;20272;-80
2022/10/14 13:45:09;;;;;;;;;;;;;;;;;;5111030;28;19919;-81
2022/10/14 13:47:35;;;;;;;;;;;;;;;;;;5111631;28;19908;-81
2022/10/14 13:50:01;;;;;;;;;;;;;;;;;;5111081;28;19953;-80
2022/10/14 13:52:27;;;;;;;;;;;;;;;;;;5110569;28;20296;-80
2022/10/14 13:54:53;;;;;;;;;;;;;;;;;;5111315;28;20010;-80
2022/10/14 13:57:21;;;;;;;;;;;;;;;;;;5110093;28;19943;-80
2022/10/14 13:59:47;;;;;;;;;;;;;;;;;;5108398;28;20027;-81
2022/10/14 14:04:05;;;;;;;;;;;;;;;;;;5110803;27;20379;-79
2022/10/14 14:06:31;;;;;;;;;;;;;;;;;;5110789;28;19912;-81
2022/10/14 14:08:57;;;;;;;;;;;;;;;;;;5111625;28;19915;-79
2022/10/14 14:11:23;;;;;;;;;;;;;;;;;;5111578;28;19908;-79
2022/10/14 14:14:23;;;;;;;;;;;;;;;;;;5111412;27;19916;-80
2022/10/14 14:16:49;;;;;;;;;;;;;;;;;;5111836;28;20357;-81
2022/10/14 14:19:15;;;;;;;;;;;;;;;;;;5111857;28;19915;-79
2022/10/14 14:22:50;;;;;;;;;;;;;;;;;;5112358;27;19922;-80
2022/10/14 14:25:16;;;;;;;;;;;;;;;;;;5110716;28;20003;-79
2022/10/14 14:27:42;;;;;;;;;;;;;;;;;;5111201;28;20007;-81
2022/10/14 14:30:08;;;;;;;;;;;;;;;;;;5111730;28;19908;-80
2022/10/14 14:32:34;;;;;;;;;;;;;;;;;;5110568;28;19908;-80
2022/10/14 14:35:00;;;;;;;;;;;;;;;;;;5111354;28;19912;-81
2022/10/14 14:37:26;;;;;;;;;;;;;;;;;;5111567;28;19912;-80
2022/10/14 14:39:52;;;;;;;;;;;;;;;;;;5111500;28;19915;-80
2022/10/14 14:44:48;;;;;;;;;;;;;;;;;;5112029;27;19912;-79
2022/10/14 14:47:14;;;;;;;;;;;;;;;;;;5110489;28;19912;-81
2022/10/14 14:50:51;;;;;;;;;;;;;;;;;;5112051;27;19916;-79
2022/10/14 14:53:19;;;;;;;;;;;;;;;;;;5111739;28;19955;-80
2022/10/14 14:55:45;;;;;;;;;;;;;;;;;;5111194;28;19915;-79
2022/10/14 14:58:11;;;;;;;;;;;;;;;;;;5111598;28;19912;-79
2022/10/14 15:00:37;;;;;;;;;;;;;;;;;;5111556;28;19908;-80
2022/10/14 15:04:13;;;;;;;;;;;;;;;;;;5112264;27;20286;-80
2022/10/14 15:06:39;;;;;;;;;;;;;;;;;;5111798;28;19999;-80
2022/10/14 15:09:05;;;;;;;;;;;;;;;;;;5109890;28;19908;-80
2022/10/14 15:11:31;;;;;;;;;;;;;;;;;;5111557;28;19914;-81
2022/10/14 15:13:58;;;;;;;;;;;;;;;;;;5110207;28;19908;-81
2022/10/14 15:16:33;;;;;;;;;;;;;;;;;;5111702;27;19965;-80
2022/10/14 15:18:59;;;;;;;;;;;;;;;;;;5112148;28;20003;-81
2022/10/14 15:21:25;;;;;;;;;;;;;;;;;;5111723;28;19908;-81
2022/10/14 15:23:52;;;;;;;;;;;;;;;;;;5110037;28;20354;-81
2022/10/14 15:26:20;;;;;;;;;;;;;;;;;;5110185;28;19908;-81
2022/10/14 15:28:46;;;;;;;;;;;;;;;;;;5111651;28;20272;-82
2022/10/14 15:31:12;;;;;;;;;;;;;;;;;;5109941;28;19908;-82
2022/10/14 15:33:38;;;;;;;;;;;;;;;;;;5111527;28;20423;-81
2022/10/14 15:36:04;;;;;;;;;;;;;;;;;;5111356;28;20284;-81
2022/10/14 15:38:30;;;;;;;;;;;;;;;;;;5109711;28;20292;-80
2022/10/14 15:40:56;;;;;;;;;;;;;;;;;;5111527;28;19908;-80
2022/10/14 15:43:22;;;;;;;;;;;;;;;;;;5111324;28;20352;-80
2022/10/14 15:47:17;;;;;;;;;;;;;;;;;;5110885;28;19908;-81
2022/10/14 15:48:36;;;;;;;;;;;;;;;;;;5111185;28;20364;-81
2022/10/14 15:51:02;;;;;;;;;;;;;;;;;;5110812;28;19934;-81
2022/10/14 15:53:28;;;;;;;;;;;;;;;;;;5109890;28;20317;-80
2022/10/14 15:55:54;;;;;;;;;;;;;;;;;;5110958;28;20323;-81
2022/10/14 15:58:20;;;;;;;;;;;;;;;;;;5110662;28;20284;-81
2022/10/14 16:00:46;;;;;;;;;;;;;;;;;;5109681;28;19930;-81
2022/10/14 16:03:12;;;;;;;;;;;;;;;;;;5110763;28;19908;-81
2022/10/14 16:05:39;;;;;;;;;;;;;;;;;;5110419;28;19908;-81
2022/10/14 16:08:05;;;;;;;;;;;;;;;;;;5110768;28;19961;-81
2022/10/14 16:10:31;;;;;;;;;;;;;;;;;;5110697;28;19987;-80
2022/10/14 16:12:57;;;;;;;;;;;;;;;;;;5110451;28;19915;-80
2022/10/14 16:15:23;;;;;;;;;;;;;;;;;;5110585;28;20371;-80
2022/10/14 16:17:49;;;;;;;;;;;;;;;;;;5110956;28;20002;-80
2022/10/14 16:20:15;;;;;;;;;;;;;;;;;;5108980;28;19908;-80
2022/10/14 16:22:41;;;;;;;;;;;;;;;;;;5110738;28;19908;-80
2022/10/14 16:25:07;;;;;;;;;;;;;;;;;;5110588;28;19996;-81
2022/10/14 16:27:33;;;;;;;;;;;;;;;;;;5098584;28;19912;-81
2022/10/14 16:29:59;;;;;;;;;;;;;;;;;;5096919;28;20332;-81
2022/10/14 16:32:24;;;;;;;;;;;;;;;;;;5095569;28;19909;-81
2022/10/14 16:34:50;;;;;;;;;;;;;;;;;;5096266;28;19919;-81
2022/10/14 16:37:16;;;;;;;;;;;;;;;;;;5097025;28;19915;-80
2022/10/14 16:39:42;;;;;;;;;;;;;;;;;;5096686;28;19957;-80
2022/10/14 16:42:08;;;;;;;;;;;;;;;;;;5096325;28;20304;-80
2022/10/14 16:49:32;;;;;;;;;;;;;;;;;;5111753;28;19935;-80
2022/10/14 16:53:55;;;;;;;;;;;;;;;;;;5091834;27;19916;-78
2022/10/14 16:59:08;;;;;;;;;;;;;;;;;;5091369;28;19915;-79
2022/10/14 17:01:34;;;;;;;;;;;;;;;;;;5089610;28;20006;-79
2022/10/14 17:04:00;;;;;;;;;;;;;;;;;;5091174;28;19948;-79
2022/10/14 17:06:26;;;;;;;;;;;;;;;;;;5090030;28;19912;-80
2022/10/14 17:08:52;;;;;;;;;;;;;;;;;;5090819;28;19919;-79
2022/10/14 17:11:18;;;;;;;;;;;;;;;;;;5091125;28;20352;-79
2022/10/14 17:13:44;;;;;;;;;;;;;;;;;;5089665;28;19927;-79
2022/10/14 17:16:10;;;;;;;;;;;;;;;;;;5090395;28;19908;-79
2022/10/14 17:18:36;;;;;;;;;;;;;;;;;;5090938;28;19922;-79
2022/10/14 17:21:02;;;;;;;;;;;;;;;;;;5089377;28;19937;-79
2022/10/14 17:23:29;;;;;;;;;;;;;;;;;;5090504;28;19916;-79
2022/10/14 17:25:55;;;;;;;;;;;;;;;;;;5090762;28;19908;-79
2022/10/14 17:28:21;;;;;;;;;;;;;;;;;;5090649;28;19915;-79
2022/10/14 17:30:47;;;;;;;;;;;;;;;;;;5090291;28;19908;-80
2022/10/14 17:33:13;;;;;;;;;;;;;;;;;;5090535;28;19924;-79
2022/10/14 17:35:39;;;;;;;;;;;;;;;;;;5090585;28;19962;-79
2022/10/14 17:38:06;;;;;;;;;;;;;;;;;;5090086;28;20409;-79
2022/10/14 17:40:32;;;;;;;;;;;;;;;;;;5090547;28;20340;-79
2022/10/14 17:42:59;;;;;;;;;;;;;;;;;;5090416;28;19961;-78
2022/10/14 17:45:25;;;;;;;;;;;;;;;;;;5088863;28;19919;-79
2022/10/14 17:47:51;;;;;;;;;;;;;;;;;;5090672;28;20285;-79
2022/10/14 17:50:18;;;;;;;;;;;;;;;;;;5090033;28;19999;-79
2022/10/14 17:52:44;;;;;;;;;;;;;;;;;;5100995;28;19920;-79
2022/10/14 17:55:10;;;;;;;;;;;;;;;;;;5110653;28;19962;-79